sensor_id;sensor_type;location;lat;lon;timestamp;temperature;humidity
22456;DHT22;11395;53.204;6.502;2023-05-10T00:01:28;24.80;63.60
22456;DHT22;11395;53.204;6.502;2023-05-10T00:03:54;24.90;63.70
22456;DHT22;11395;53.204;6.502;2023-05-10T00:06:21;24.80;63.60
22456;DHT22;11395;53.204;6.502;2023-05-10T00:08:47;24.80;63.60
22456;DHT22;11395;53.204;6.502;2023-05-10T00:11:13;24.80;63.60
22456;DHT22;11395;53.204;6.502;2023-05-10T00:13:40;24.70;63.60
22456;DHT22;11395;53.204;6.502;2023-05-10T00:16:06;24.70;63.60
22456;DHT22;11395;53.204;6.502;2023-05-10T00:18:32;24.70;63.60
22456;DHT22;11395;53.204;6.502;2023-05-10T00:20:58;24.70;63.70
22456;DHT22;11395;53.204;6.502;2023-05-10T00:23:24;24.70;63.70
22456;DHT22;11395;53.204;6.502;2023-05-10T00:25:50;24.70;63.70
22456;DHT22;11395;53.204;6.502;2023-05-10T00:28:16;24.60;63.70
22456;DHT22;11395;53.204;6.502;2023-05-10T00:30:42;24.60;63.70
22456;DHT22;11395;53.204;6.502;2023-05-10T00:33:09;24.60;63.70
22456;DHT22;11395;53.204;6.502;2023-05-10T00:35:35;24.60;63.70
22456;DHT22;11395;53.204;6.502;2023-05-10T00:38:01;24.60;63.70
22456;DHT22;11395;53.204;6.502;2023-05-10T00:40:28;24.70;63.80
22456;DHT22;11395;53.204;6.502;2023-05-10T00:42:58;24.60;63.80
22456;DHT22;11395;53.204;6.502;2023-05-10T00:45:26;24.50;63.70
22456;DHT22;11395;53.204;6.502;2023-05-10T00:47:53;24.60;63.80
22456;DHT22;11395;53.204;6.502;2023-05-10T00:50:22;24.50;63.80
22456;DHT22;11395;53.204;6.502;2023-05-10T00:52:49;24.50;63.80
22456;DHT22;11395;53.204;6.502;2023-05-10T00:55:15;24.50;63.80
22456;DHT22;11395;53.204;6.502;2023-05-10T00:57:42;24.50;63.80
22456;DHT22;11395;53.204;6.502;2023-05-10T01:00:09;24.50;63.80
22456;DHT22;11395;53.204;6.502;2023-05-10T01:02:35;24.40;63.80
22456;DHT22;11395;53.204;6.502;2023-05-10T01:05:03;24.40;63.80
22456;DHT22;11395;53.204;6.502;2023-05-10T01:07:31;24.40;63.80
22456;DHT22;11395;53.204;6.502;2023-05-10T01:09:58;24.70;64.00
22456;DHT22;11395;53.204;6.502;2023-05-10T01:12:24;24.40;63.90
22456;DHT22;11395;53.204;6.502;2023-05-10T01:14:51;24.40;63.90
22456;DHT22;11395;53.204;6.502;2023-05-10T01:17:17;24.40;64.00
22456;DHT22;11395;53.204;6.502;2023-05-10T01:19:44;24.40;64.00
22456;DHT22;11395;53.204;6.502;2023-05-10T01:30:46;24.30;64.00
22456;DHT22;11395;53.204;6.502;2023-05-10T01:38:51;24.20;64.00
22456;DHT22;11395;53.204;6.502;2023-05-10T01:41:25;24.20;64.00
22456;DHT22;11395;53.204;6.502;2023-05-10T01:44:04;24.20;64.00
22456;DHT22;11395;53.204;6.502;2023-05-10T01:46:37;24.20;64.00
22456;DHT22;11395;53.204;6.502;2023-05-10T01:49:27;24.20;64.10
22456;DHT22;11395;53.204;6.502;2023-05-10T01:51:59;24.20;64.10
22456;DHT22;11395;53.204;6.502;2023-05-10T01:54:27;24.20;64.10
22456;DHT22;11395;53.204;6.502;2023-05-10T01:57:03;24.10;64.00
22456;DHT22;11395;53.204;6.502;2023-05-10T01:59:34;24.10;64.10
22456;DHT22;11395;53.204;6.502;2023-05-10T02:02:07;24.10;64.10
22456;DHT22;11395;53.204;6.502;2023-05-10T02:04:39;24.10;64.10
22456;DHT22;11395;53.204;6.502;2023-05-10T02:07:07;24.20;64.20
22456;DHT22;11395;53.204;6.502;2023-05-10T02:09:34;24.10;64.10
22456;DHT22;11395;53.204;6.502;2023-05-10T02:12:04;24.00;64.10
22456;DHT22;11395;53.204;6.502;2023-05-10T02:14:35;24.10;64.20
22456;DHT22;11395;53.204;6.502;2023-05-10T02:17:06;24.20;64.20
22456;DHT22;11395;53.204;6.502;2023-05-10T02:19:34;24.10;64.20
22456;DHT22;11395;53.204;6.502;2023-05-10T02:22:02;24.00;64.10
22456;DHT22;11395;53.204;6.502;2023-05-10T02:24:29;24.00;64.10
22456;DHT22;11395;53.204;6.502;2023-05-10T02:26:56;24.00;64.10
22456;DHT22;11395;53.204;6.502;2023-05-10T02:29:25;24.00;64.10
22456;DHT22;11395;53.204;6.502;2023-05-10T02:31:54;24.00;64.20
22456;DHT22;11395;53.204;6.502;2023-05-10T02:34:22;23.90;64.10
22456;DHT22;11395;53.204;6.502;2023-05-10T02:36:49;23.30;63.80
22456;DHT22;11395;53.204;6.502;2023-05-10T02:39:18;23.90;64.20
22456;DHT22;11395;53.204;6.502;2023-05-10T02:41:46;23.90;64.10
22456;DHT22;11395;53.204;6.502;2023-05-10T02:44:15;23.90;64.20
22456;DHT22;11395;53.204;6.502;2023-05-10T02:46:41;23.90;64.20
22456;DHT22;11395;53.204;6.502;2023-05-10T02:49:07;23.90;64.20
22456;DHT22;11395;53.204;6.502;2023-05-10T02:51:36;23.90;64.30
22456;DHT22;11395;53.204;6.502;2023-05-10T02:54:11;23.80;64.10
22456;DHT22;11395;53.204;6.502;2023-05-10T02:56:43;23.90;64.20
22456;DHT22;11395;53.204;6.502;2023-05-10T02:59:12;23.80;64.20
22456;DHT22;11395;53.204;6.502;2023-05-10T03:01:39;23.80;64.20
22456;DHT22;11395;53.204;6.502;2023-05-10T03:04:06;23.80;64.20
22456;DHT22;11395;53.204;6.502;2023-05-10T03:06:33;23.80;64.20
22456;DHT22;11395;53.204;6.502;2023-05-10T03:08:59;24.30;64.50
22456;DHT22;11395;53.204;6.502;2023-05-10T03:15:04;23.80;64.20
22456;DHT22;11395;53.204;6.502;2023-05-10T03:18:05;23.80;64.20
22456;DHT22;11395;53.204;6.502;2023-05-10T03:20:42;23.70;64.20
22456;DHT22;11395;53.204;6.502;2023-05-10T03:23:36;23.70;64.30
22456;DHT22;11395;53.204;6.502;2023-05-10T03:26:05;23.70;64.30
22456;DHT22;11395;53.204;6.502;2023-05-10T03:28:34;23.70;64.40
22456;DHT22;11395;53.204;6.502;2023-05-10T03:31:03;23.70;64.40
22456;DHT22;11395;53.204;6.502;2023-05-10T03:33:31;23.70;64.40
22456;DHT22;11395;53.204;6.502;2023-05-10T03:35:59;23.70;64.40
22456;DHT22;11395;53.204;6.502;2023-05-10T03:38:25;23.60;64.30
22456;DHT22;11395;53.204;6.502;2023-05-10T03:40:52;23.70;64.40
22456;DHT22;11395;53.204;6.502;2023-05-10T03:43:18;23.70;64.40
22456;DHT22;11395;53.204;6.502;2023-05-10T03:45:44;23.60;64.40
22456;DHT22;11395;53.204;6.502;2023-05-10T03:48:10;23.60;64.30
22456;DHT22;11395;53.204;6.502;2023-05-10T03:50:37;23.60;64.30
22456;DHT22;11395;53.204;6.502;2023-05-10T03:53:03;23.90;64.50
22456;DHT22;11395;53.204;6.502;2023-05-10T03:55:29;23.60;64.30
22456;DHT22;11395;53.204;6.502;2023-05-10T03:57:56;23.70;64.40
22456;DHT22;11395;53.204;6.502;2023-05-10T04:00:23;23.60;64.30
22456;DHT22;11395;53.204;6.502;2023-05-10T04:02:52;23.60;64.40
22456;DHT22;11395;53.204;6.502;2023-05-10T04:05:19;23.40;64.30
22456;DHT22;11395;53.204;6.502;2023-05-10T04:07:45;23.60;64.40
22456;DHT22;11395;53.204;6.502;2023-05-10T04:10:12;23.60;64.30
22456;DHT22;11395;53.204;6.502;2023-05-10T04:12:39;23.60;64.30
22456;DHT22;11395;53.204;6.502;2023-05-10T04:15:05;23.50;64.20
22456;DHT22;11395;53.204;6.502;2023-05-10T04:17:32;23.60;64.30
22456;DHT22;11395;53.204;6.502;2023-05-10T04:19:58;23.60;64.30
22456;DHT22;11395;53.204;6.502;2023-05-10T04:22:24;23.70;64.40
22456;DHT22;11395;53.204;6.502;2023-05-10T04:24:50;23.70;64.40
22456;DHT22;11395;53.204;6.502;2023-05-10T04:27:16;23.80;64.40
22456;DHT22;11395;53.204;6.502;2023-05-10T04:29:42;23.90;64.40
22456;DHT22;11395;53.204;6.502;2023-05-10T04:32:09;23.90;64.30
22456;DHT22;11395;53.204;6.502;2023-05-10T04:34:36;24.10;64.30
22456;DHT22;11395;53.204;6.502;2023-05-10T04:37:03;24.10;64.10
22456;DHT22;11395;53.204;6.502;2023-05-10T04:39:29;24.20;64.00
22456;DHT22;11395;53.204;6.502;2023-05-10T04:41:55;24.30;63.90
22456;DHT22;11395;53.204;6.502;2023-05-10T04:44:21;24.30;63.80
22456;DHT22;11395;53.204;6.502;2023-05-10T04:46:47;24.40;63.70
22456;DHT22;11395;53.204;6.502;2023-05-10T04:49:13;24.50;63.60
22456;DHT22;11395;53.204;6.502;2023-05-10T04:51:40;24.60;63.50
22456;DHT22;11395;53.204;6.502;2023-05-10T04:54:06;24.60;63.40
22456;DHT22;11395;53.204;6.502;2023-05-10T04:56:32;24.60;63.20
22456;DHT22;11395;53.204;6.502;2023-05-10T04:58:58;24.70;63.20
22456;DHT22;11395;53.204;6.502;2023-05-10T05:01:24;24.70;63.10
22456;DHT22;11395;53.204;6.502;2023-05-10T05:03:50;24.60;62.90
22456;DHT22;11395;53.204;6.502;2023-05-10T05:06:18;24.70;62.90
22456;DHT22;11395;53.204;6.502;2023-05-10T05:08:44;24.80;62.90
22456;DHT22;11395;53.204;6.502;2023-05-10T05:11:10;24.80;62.80
22456;DHT22;11395;53.204;6.502;2023-05-10T05:13:37;24.80;62.70
22456;DHT22;11395;53.204;6.502;2023-05-10T05:16:03;24.80;62.70
22456;DHT22;11395;53.204;6.502;2023-05-10T05:18:29;24.80;62.60
22456;DHT22;11395;53.204;6.502;2023-05-10T05:20:55;24.90;62.60
22456;DHT22;11395;53.204;6.502;2023-05-10T05:23:21;24.90;62.70
22456;DHT22;11395;53.204;6.502;2023-05-10T05:25:54;24.90;62.60
22456;DHT22;11395;53.204;6.502;2023-05-10T05:28:20;24.90;62.60
22456;DHT22;11395;53.204;6.502;2023-05-10T05:30:46;24.90;62.60
22456;DHT22;11395;53.204;6.502;2023-05-10T05:33:13;25.00;62.70
22456;DHT22;11395;53.204;6.502;2023-05-10T05:35:41;25.00;62.60
22456;DHT22;11395;53.204;6.502;2023-05-10T05:38:10;25.10;62.60
22456;DHT22;11395;53.204;6.502;2023-05-10T05:40:36;25.10;62.50
22456;DHT22;11395;53.204;6.502;2023-05-10T05:43:02;25.10;62.30
22456;DHT22;11395;53.204;6.502;2023-05-10T05:45:28;25.20;62.30
22456;DHT22;11395;53.204;6.502;2023-05-10T05:47:55;25.10;62.10
22456;DHT22;11395;53.204;6.502;2023-05-10T05:50:22;25.20;62.20
22456;DHT22;11395;53.204;6.502;2023-05-10T05:52:48;25.30;62.10
22456;DHT22;11395;53.204;6.502;2023-05-10T05:55:14;25.30;62.10
22456;DHT22;11395;53.204;6.502;2023-05-10T05:57:40;25.30;61.90
22456;DHT22;11395;53.204;6.502;2023-05-10T06:00:06;25.30;61.80
22456;DHT22;11395;53.204;6.502;2023-05-10T06:02:38;25.30;61.60
22456;DHT22;11395;53.204;6.502;2023-05-10T06:05:05;25.30;61.70
22456;DHT22;11395;53.204;6.502;2023-05-10T06:07:31;25.30;61.70
22456;DHT22;11395;53.204;6.502;2023-05-10T06:09:57;25.40;61.80
22456;DHT22;11395;53.204;6.502;2023-05-10T06:12:23;25.30;61.60
22456;DHT22;11395;53.204;6.502;2023-05-10T06:14:49;25.40;61.70
22456;DHT22;11395;53.204;6.502;2023-05-10T06:17:16;25.30;61.60
22456;DHT22;11395;53.204;6.502;2023-05-10T06:19:42;25.30;61.60
22456;DHT22;11395;53.204;6.502;2023-05-10T06:22:08;25.30;61.50
22456;DHT22;11395;53.204;6.502;2023-05-10T06:24:34;25.30;61.50
22456;DHT22;11395;53.204;6.502;2023-05-10T06:27:00;25.30;61.50
22456;DHT22;11395;53.204;6.502;2023-05-10T06:29:26;25.30;61.40
22456;DHT22;11395;53.204;6.502;2023-05-10T06:31:52;25.20;61.40
22456;DHT22;11395;53.204;6.502;2023-05-10T06:34:19;25.30;61.40
22456;DHT22;11395;53.204;6.502;2023-05-10T06:36:46;25.20;61.40
22456;DHT22;11395;53.204;6.502;2023-05-10T06:39:12;25.20;61.40
22456;DHT22;11395;53.204;6.502;2023-05-10T06:41:38;25.40;61.60
22456;DHT22;11395;53.204;6.502;2023-05-10T06:44:04;25.20;61.40
22456;DHT22;11395;53.204;6.502;2023-05-10T06:46:30;25.20;61.40
22456;DHT22;11395;53.204;6.502;2023-05-10T06:48:57;25.10;61.30
22456;DHT22;11395;53.204;6.502;2023-05-10T06:51:23;25.10;61.50
22456;DHT22;11395;53.204;6.502;2023-05-10T06:53:49;25.10;61.50
22456;DHT22;11395;53.204;6.502;2023-05-10T06:56:15;25.10;61.50
22456;DHT22;11395;53.204;6.502;2023-05-10T06:58:41;25.10;61.60
22456;DHT22;11395;53.204;6.502;2023-05-10T07:01:07;25.20;61.80
22456;DHT22;11395;53.204;6.502;2023-05-10T07:03:34;25.20;62.00
22456;DHT22;11395;53.204;6.502;2023-05-10T07:06:03;25.20;61.90
22456;DHT22;11395;53.204;6.502;2023-05-10T07:08:30;25.20;61.90
22456;DHT22;11395;53.204;6.502;2023-05-10T07:11:05;25.40;62.00
22456;DHT22;11395;53.204;6.502;2023-05-10T07:13:33;25.30;61.80
22456;DHT22;11395;53.204;6.502;2023-05-10T07:16:00;25.40;61.90
22456;DHT22;11395;53.204;6.502;2023-05-10T07:18:28;25.40;61.80
22456;DHT22;11395;53.204;6.502;2023-05-10T07:20:54;25.30;61.70
22456;DHT22;11395;53.204;6.502;2023-05-10T07:23:21;25.40;61.70
22456;DHT22;11395;53.204;6.502;2023-05-10T07:25:50;25.50;61.70
22456;DHT22;11395;53.204;6.502;2023-05-10T07:28:19;25.50;62.40
22456;DHT22;11395;53.204;6.502;2023-05-10T07:30:46;25.50;61.60
22456;DHT22;11395;53.204;6.502;2023-05-10T07:33:14;25.50;61.60
22456;DHT22;11395;53.204;6.502;2023-05-10T07:35:40;25.40;61.30
22456;DHT22;11395;53.204;6.502;2023-05-10T07:38:06;25.60;61.40
22456;DHT22;11395;53.204;6.502;2023-05-10T07:40:33;25.60;61.40
22456;DHT22;11395;53.204;6.502;2023-05-10T07:42:59;25.70;61.50
22456;DHT22;11395;53.204;6.502;2023-05-10T07:45:28;25.60;61.40
22456;DHT22;11395;53.204;6.502;2023-05-10T07:47:54;25.60;61.50
22456;DHT22;11395;53.204;6.502;2023-05-10T07:50:20;25.60;61.40
22456;DHT22;11395;53.204;6.502;2023-05-10T07:52:47;25.60;61.40
22456;DHT22;11395;53.204;6.502;2023-05-10T07:55:14;25.70;61.40
22456;DHT22;11395;53.204;6.502;2023-05-10T07:57:41;25.50;61.30
22456;DHT22;11395;53.204;6.502;2023-05-10T08:00:08;25.60;61.20
22456;DHT22;11395;53.204;6.502;2023-05-10T08:02:40;25.50;61.10
22456;DHT22;11395;53.204;6.502;2023-05-10T08:05:07;25.50;61.10
22456;DHT22;11395;53.204;6.502;2023-05-10T08:07:33;25.50;61.20
22456;DHT22;11395;53.204;6.502;2023-05-10T08:10:00;25.50;61.20
22456;DHT22;11395;53.204;6.502;2023-05-10T08:12:26;25.50;61.20
22456;DHT22;11395;53.204;6.502;2023-05-10T08:14:52;25.50;61.30
22456;DHT22;11395;53.204;6.502;2023-05-10T08:17:18;25.40;61.30
22456;DHT22;11395;53.204;6.502;2023-05-10T08:19:44;25.40;61.30
22456;DHT22;11395;53.204;6.502;2023-05-10T08:22:10;25.40;61.50
22456;DHT22;11395;53.204;6.502;2023-05-10T08:24:36;25.40;61.70
22456;DHT22;11395;53.204;6.502;2023-05-10T08:27:08;25.30;62.50
22456;DHT22;11395;53.204;6.502;2023-05-10T08:29:34;25.30;61.90
22456;DHT22;11395;53.204;6.502;2023-05-10T08:32:00;25.30;61.80
22456;DHT22;11395;53.204;6.502;2023-05-10T08:34:29;25.30;61.80
22456;DHT22;11395;53.204;6.502;2023-05-10T08:36:57;25.30;61.80
22456;DHT22;11395;53.204;6.502;2023-05-10T08:39:23;25.30;61.80
22456;DHT22;11395;53.204;6.502;2023-05-10T08:41:51;25.30;62.30
22456;DHT22;11395;53.204;6.502;2023-05-10T08:44:18;25.50;62.30
22456;DHT22;11395;53.204;6.502;2023-05-10T08:46:46;25.40;62.10
22456;DHT22;11395;53.204;6.502;2023-05-10T08:49:17;25.20;62.00
22456;DHT22;11395;53.204;6.502;2023-05-10T08:51:54;25.50;62.00
22456;DHT22;11395;53.204;6.502;2023-05-10T08:54:22;25.80;62.10
22456;DHT22;11395;53.204;6.502;2023-05-10T08:56:48;25.70;61.60
22456;DHT22;11395;53.204;6.502;2023-05-10T08:59:15;25.80;61.20
22456;DHT22;11395;53.204;6.502;2023-05-10T09:01:43;25.90;61.10
22456;DHT22;11395;53.204;6.502;2023-05-10T09:04:10;25.90;60.80
22456;DHT22;11395;53.204;6.502;2023-05-10T09:06:36;26.00;60.50
22456;DHT22;11395;53.204;6.502;2023-05-10T09:09:03;26.00;60.60
22456;DHT22;11395;53.204;6.502;2023-05-10T09:11:30;26.10;60.50
22456;DHT22;11395;53.204;6.502;2023-05-10T09:13:56;26.10;60.40
22456;DHT22;11395;53.204;6.502;2023-05-10T09:16:23;26.20;60.40
22456;DHT22;11395;53.204;6.502;2023-05-10T09:18:49;26.20;60.50
22456;DHT22;11395;53.204;6.502;2023-05-10T09:21:15;26.20;60.40
22456;DHT22;11395;53.204;6.502;2023-05-10T09:23:45;26.10;60.40
22456;DHT22;11395;53.204;6.502;2023-05-10T09:26:13;26.30;60.40
22456;DHT22;11395;53.204;6.502;2023-05-10T09:28:57;26.40;60.20
22456;DHT22;11395;53.204;6.502;2023-05-10T09:31:24;26.40;60.20
22456;DHT22;11395;53.204;6.502;2023-05-10T09:33:53;26.50;60.20
22456;DHT22;11395;53.204;6.502;2023-05-10T09:36:19;26.50;60.10
22456;DHT22;11395;53.204;6.502;2023-05-10T09:38:51;26.60;60.20
22456;DHT22;11395;53.204;6.502;2023-05-10T09:41:22;26.60;60.00
22456;DHT22;11395;53.204;6.502;2023-05-10T09:43:49;26.60;60.00
22456;DHT22;11395;53.204;6.502;2023-05-10T09:46:16;26.60;60.00
22456;DHT22;11395;53.204;6.502;2023-05-10T09:48:44;26.60;59.90
22456;DHT22;11395;53.204;6.502;2023-05-10T09:51:22;26.70;60.00
22456;DHT22;11395;53.204;6.502;2023-05-10T09:53:48;26.70;60.20
22456;DHT22;11395;53.204;6.502;2023-05-10T09:56:33;26.70;60.30
22456;DHT22;11395;53.204;6.502;2023-05-10T09:59:04;26.70;60.20
22456;DHT22;11395;53.204;6.502;2023-05-10T10:01:30;26.80;60.40
22456;DHT22;11395;53.204;6.502;2023-05-10T10:03:57;26.80;60.50
22456;DHT22;11395;53.204;6.502;2023-05-10T10:06:24;26.80;60.30
22456;DHT22;11395;53.204;6.502;2023-05-10T10:08:51;26.90;60.50
22456;DHT22;11395;53.204;6.502;2023-05-10T10:11:17;26.90;60.50
22456;DHT22;11395;53.204;6.502;2023-05-10T10:13:43;26.80;60.40
22456;DHT22;11395;53.204;6.502;2023-05-10T10:16:10;26.90;60.40
22456;DHT22;11395;53.204;6.502;2023-05-10T10:18:36;26.90;60.40
22456;DHT22;11395;53.204;6.502;2023-05-10T10:21:06;26.90;60.40
22456;DHT22;11395;53.204;6.502;2023-05-10T10:23:37;26.90;61.70
22456;DHT22;11395;53.204;6.502;2023-05-10T10:26:04;26.90;61.50
22456;DHT22;11395;53.204;6.502;2023-05-10T10:28:39;26.80;62.50
22456;DHT22;11395;53.204;6.502;2023-05-10T10:31:36;26.70;61.80
22456;DHT22;11395;53.204;6.502;2023-05-10T10:34:06;26.70;61.90
22456;DHT22;11395;53.204;6.502;2023-05-10T10:36:40;26.60;61.90
22456;DHT22;11395;53.204;6.502;2023-05-10T10:39:10;26.60;61.90
22456;DHT22;11395;53.204;6.502;2023-05-10T10:41:39;26.50;61.80
22456;DHT22;11395;53.204;6.502;2023-05-10T10:52:35;26.30;61.80
22456;DHT22;11395;53.204;6.502;2023-05-10T10:55:08;26.20;61.80
22456;DHT22;11395;53.204;6.502;2023-05-10T10:57:48;26.20;61.90
22456;DHT22;11395;53.204;6.502;2023-05-10T11:00:37;26.20;61.90
22456;DHT22;11395;53.204;6.502;2023-05-10T11:03:10;26.10;61.70
22456;DHT22;11395;53.204;6.502;2023-05-10T11:05:44;26.10;61.90
22456;DHT22;11395;53.204;6.502;2023-05-10T11:08:15;26.10;61.80
22456;DHT22;11395;53.204;6.502;2023-05-10T11:11:05;26.00;61.80
22456;DHT22;11395;53.204;6.502;2023-05-10T11:16:40;26.00;61.80
22456;DHT22;11395;53.204;6.502;2023-05-10T11:19:10;26.00;61.70
22456;DHT22;11395;53.204;6.502;2023-05-10T11:21:50;25.90;61.80
22456;DHT22;11395;53.204;6.502;2023-05-10T11:24:22;25.90;61.90
22456;DHT22;11395;53.204;6.502;2023-05-10T11:26:51;25.90;62.10
22456;DHT22;11395;53.204;6.502;2023-05-10T11:29:18;25.90;62.10
22456;DHT22;11395;53.204;6.502;2023-05-10T11:31:45;25.70;61.80
22456;DHT22;11395;53.204;6.502;2023-05-10T11:34:26;25.80;62.00
22456;DHT22;11395;53.204;6.502;2023-05-10T11:36:54;25.80;62.10
22456;DHT22;11395;53.204;6.502;2023-05-10T11:39:21;25.80;62.10
22456;DHT22;11395;53.204;6.502;2023-05-10T11:41:48;25.70;62.10
22456;DHT22;11395;53.204;6.502;2023-05-10T11:44:15;25.70;62.20
22456;DHT22;11395;53.204;6.502;2023-05-10T11:46:41;25.70;62.20
22456;DHT22;11395;53.204;6.502;2023-05-10T11:49:07;25.70;62.30
22456;DHT22;11395;53.204;6.502;2023-05-10T11:51:34;25.60;62.40
22456;DHT22;11395;53.204;6.502;2023-05-10T11:54:09;25.60;62.40
22456;DHT22;11395;53.204;6.502;2023-05-10T11:56:39;25.60;62.40
22456;DHT22;11395;53.204;6.502;2023-05-10T11:59:06;25.60;62.40
22456;DHT22;11395;53.204;6.502;2023-05-10T12:01:33;25.50;62.60
22456;DHT22;11395;53.204;6.502;2023-05-10T12:04:00;25.50;62.60
22456;DHT22;11395;53.204;6.502;2023-05-10T12:06:31;25.50;62.70
22456;DHT22;11395;53.204;6.502;2023-05-10T12:08:58;25.40;62.60
22456;DHT22;11395;53.204;6.502;2023-05-10T12:11:25;25.40;62.70
22456;DHT22;11395;53.204;6.502;2023-05-10T12:13:53;25.40;62.80
22456;DHT22;11395;53.204;6.502;2023-05-10T12:16:25;25.30;62.70
22456;DHT22;11395;53.204;6.502;2023-05-10T12:18:52;25.30;62.80
22456;DHT22;11395;53.204;6.502;2023-05-10T12:21:20;25.30;62.90
22456;DHT22;11395;53.204;6.502;2023-05-10T12:23:51;25.30;62.90
22456;DHT22;11395;53.204;6.502;2023-05-10T12:26:18;25.30;63.00
22456;DHT22;11395;53.204;6.502;2023-05-10T12:28:44;25.30;63.10
22456;DHT22;11395;53.204;6.502;2023-05-10T12:31:10;25.30;63.10
22456;DHT22;11395;53.204;6.502;2023-05-10T12:33:42;25.30;63.10
22456;DHT22;11395;53.204;6.502;2023-05-10T12:36:09;25.40;63.00
22456;DHT22;11395;53.204;6.502;2023-05-10T12:38:40;25.40;63.10
22456;DHT22;11395;53.204;6.502;2023-05-10T12:41:13;25.40;63.00
22456;DHT22;11395;53.204;6.502;2023-05-10T12:43:40;25.50;63.00
22456;DHT22;11395;53.204;6.502;2023-05-10T12:46:10;25.50;63.00
22456;DHT22;11395;53.204;6.502;2023-05-10T12:48:37;25.50;62.80
22456;DHT22;11395;53.204;6.502;2023-05-10T12:51:04;25.50;62.80
22456;DHT22;11395;53.204;6.502;2023-05-10T12:53:31;25.60;62.80
22456;DHT22;11395;53.204;6.502;2023-05-10T12:55:57;25.70;62.80
22456;DHT22;11395;53.204;6.502;2023-05-10T12:58:23;25.70;62.70
22456;DHT22;11395;53.204;6.502;2023-05-10T13:00:50;25.70;62.60
22456;DHT22;11395;53.204;6.502;2023-05-10T13:03:17;25.70;62.50
22456;DHT22;11395;53.204;6.502;2023-05-10T13:05:43;25.70;62.40
22456;DHT22;11395;53.204;6.502;2023-05-10T13:08:10;25.70;62.40
22456;DHT22;11395;53.204;6.502;2023-05-10T13:10:36;25.70;62.30
22456;DHT22;11395;53.204;6.502;2023-05-10T13:13:02;25.70;62.30
22456;DHT22;11395;53.204;6.502;2023-05-10T13:15:28;25.50;62.20
22456;DHT22;11395;53.204;6.502;2023-05-10T13:17:54;25.70;62.30
22456;DHT22;11395;53.204;6.502;2023-05-10T13:20:21;26.10;62.60
22456;DHT22;11395;53.204;6.502;2023-05-10T13:22:47;25.70;62.40
22456;DHT22;11395;53.204;6.502;2023-05-10T13:25:13;25.70;62.40
22456;DHT22;11395;53.204;6.502;2023-05-10T13:27:39;25.70;62.20
22456;DHT22;11395;53.204;6.502;2023-05-10T13:30:10;25.70;62.10
22456;DHT22;11395;53.204;6.502;2023-05-10T13:32:37;25.60;62.20
22456;DHT22;11395;53.204;6.502;2023-05-10T13:35:04;25.70;62.30
22456;DHT22;11395;53.204;6.502;2023-05-10T13:37:31;25.70;62.40
22456;DHT22;11395;53.204;6.502;2023-05-10T13:39:58;25.60;62.40
22456;DHT22;11395;53.204;6.502;2023-05-10T13:42:24;25.70;62.50
22456;DHT22;11395;53.204;6.502;2023-05-10T13:44:50;25.60;62.40
22456;DHT22;11395;53.204;6.502;2023-05-10T13:47:17;25.60;62.40
22456;DHT22;11395;53.204;6.502;2023-05-10T13:49:44;25.60;62.50
22456;DHT22;11395;53.204;6.502;2023-05-10T13:52:10;25.60;62.40
22456;DHT22;11395;53.204;6.502;2023-05-10T13:54:38;25.60;62.40
22456;DHT22;11395;53.204;6.502;2023-05-10T13:57:04;25.60;62.50
22456;DHT22;11395;53.204;6.502;2023-05-10T13:59:31;25.50;62.30
22456;DHT22;11395;53.204;6.502;2023-05-10T14:01:58;25.60;62.50
22456;DHT22;11395;53.204;6.502;2023-05-10T14:04:24;25.60;62.50
22456;DHT22;11395;53.204;6.502;2023-05-10T14:06:50;25.60;62.40
22456;DHT22;11395;53.204;6.502;2023-05-10T14:09:18;25.50;62.40
22456;DHT22;11395;53.204;6.502;2023-05-10T14:11:45;25.50;62.40
22456;DHT22;11395;53.204;6.502;2023-05-10T14:14:12;25.50;62.30
22456;DHT22;11395;53.204;6.502;2023-05-10T14:16:43;25.50;62.40
22456;DHT22;11395;53.204;6.502;2023-05-10T14:19:10;25.50;62.40
22456;DHT22;11395;53.204;6.502;2023-05-10T14:21:36;25.50;62.50
22456;DHT22;11395;53.204;6.502;2023-05-10T14:24:02;25.50;62.60
22456;DHT22;11395;53.204;6.502;2023-05-10T14:26:29;25.50;62.60
22456;DHT22;11395;53.204;6.502;2023-05-10T14:28:55;25.50;62.40
22456;DHT22;11395;53.204;6.502;2023-05-10T14:31:21;25.50;62.40
22456;DHT22;11395;53.204;6.502;2023-05-10T14:33:49;25.50;62.40
22456;DHT22;11395;53.204;6.502;2023-05-10T14:36:15;25.50;62.40
22456;DHT22;11395;53.204;6.502;2023-05-10T14:38:41;25.50;62.30
22456;DHT22;11395;53.204;6.502;2023-05-10T14:41:07;25.50;62.40
22456;DHT22;11395;53.204;6.502;2023-05-10T14:43:34;25.50;62.50
22456;DHT22;11395;53.204;6.502;2023-05-10T14:46:00;25.40;62.60
22456;DHT22;11395;53.204;6.502;2023-05-10T14:48:26;25.50;62.40
22456;DHT22;11395;53.204;6.502;2023-05-10T14:50:52;25.50;62.50
22456;DHT22;11395;53.204;6.502;2023-05-10T14:53:18;25.50;62.40
22456;DHT22;11395;53.204;6.502;2023-05-10T14:55:44;25.50;62.30
22456;DHT22;11395;53.204;6.502;2023-05-10T14:58:10;25.50;62.30
22456;DHT22;11395;53.204;6.502;2023-05-10T15:00:37;25.50;62.20
22456;DHT22;11395;53.204;6.502;2023-05-10T15:03:03;25.50;62.30
22456;DHT22;11395;53.204;6.502;2023-05-10T15:05:29;25.50;62.20
22456;DHT22;11395;53.204;6.502;2023-05-10T15:07:55;25.50;62.10
22456;DHT22;11395;53.204;6.502;2023-05-10T15:10:21;25.70;62.20
22456;DHT22;11395;53.204;6.502;2023-05-10T15:12:48;25.40;62.00
22456;DHT22;11395;53.204;6.502;2023-05-10T15:15:14;25.40;62.10
22456;DHT22;11395;53.204;6.502;2023-05-10T15:17:40;25.40;62.40
22456;DHT22;11395;53.204;6.502;2023-05-10T15:20:07;25.30;62.20
22456;DHT22;11395;53.204;6.502;2023-05-10T15:22:33;25.30;62.10
22456;DHT22;11395;53.204;6.502;2023-05-10T15:25:00;25.40;62.40
22456;DHT22;11395;53.204;6.502;2023-05-10T15:27:26;25.30;62.30
22456;DHT22;11395;53.204;6.502;2023-05-10T15:29:52;25.40;62.90
22456;DHT22;11395;53.204;6.502;2023-05-10T15:32:18;25.40;62.70
22456;DHT22;11395;53.204;6.502;2023-05-10T15:34:45;25.50;62.80
22456;DHT22;11395;53.204;6.502;2023-05-10T15:37:11;25.50;62.80
22456;DHT22;11395;53.204;6.502;2023-05-10T15:39:37;25.60;62.80
22456;DHT22;11395;53.204;6.502;2023-05-10T15:42:03;25.60;63.40
22456;DHT22;11395;53.204;6.502;2023-05-10T15:44:29;25.60;62.70
22456;DHT22;11395;53.204;6.502;2023-05-10T15:46:56;25.70;62.50
22456;DHT22;11395;53.204;6.502;2023-05-10T15:49:22;25.70;62.40
22456;DHT22;11395;53.204;6.502;2023-05-10T15:51:48;25.70;62.30
22456;DHT22;11395;53.204;6.502;2023-05-10T15:54:14;25.70;62.10
22456;DHT22;11395;53.204;6.502;2023-05-10T15:56:40;25.70;62.10
22456;DHT22;11395;53.204;6.502;2023-05-10T15:59:07;25.70;62.40
22456;DHT22;11395;53.204;6.502;2023-05-10T16:01:35;25.80;62.50
22456;DHT22;11395;53.204;6.502;2023-05-10T16:04:01;25.80;62.50